createdAt,value
2023-11-07T00:02:14.055Z,99507.94
2023-11-07T00:06:17.401Z,99503.56
2023-11-07T00:10:21.940Z,99500.94
2023-11-07T00:14:25.482Z,99502.69
2023-11-07T00:18:29.042Z,99516.69
2023-11-07T00:22:32.769Z,99536.78
2023-11-07T00:26:37.184Z,99537.69
2023-11-07T00:30:40.605Z,99545.53
2023-11-07T00:34:43.715Z,99544.63
2023-11-07T00:38:47.050Z,99549.81
2023-11-07T00:42:51.452Z,99552.44
2023-11-07T00:46:54.815Z,99560.28
2023-11-07T00:50:58.027Z,99565.44
2023-11-07T00:55:01.715Z,99576.78
2023-11-07T00:59:06.628Z,99581.06
2023-11-07T01:03:10.628Z,99587.19
2023-11-07T01:07:13.995Z,99586.31
2023-11-07T01:11:17.439Z,99587.19
2023-11-07T01:15:21.976Z,99590.69
2023-11-07T01:19:25.446Z,99587.22
2023-11-07T01:23:28.613Z,99587.22
2023-11-07T01:27:32.559Z,99591.56
2023-11-07T01:31:36.975Z,99607.38
2023-11-07T01:35:40.642Z,99610.09
2023-11-07T01:39:43.677Z,99616.22
2023-11-07T01:43:47.780Z,99615.31
2023-11-07T01:47:53.494Z,99626.75
2023-11-07T01:51:59.458Z,99620.66
2023-11-07T01:56:03.380Z,99621.53
2023-11-07T02:00:13.246Z,99627.72
2023-11-07T02:04:17.840Z,99626.00
2023-11-07T02:08:24.207Z,99616.41
2023-11-07T02:12:27.228Z,99611.22
2023-11-07T02:16:30.737Z,99611.25
2023-11-07T02:20:38.113Z,99620.91
2023-11-07T02:24:43.000Z,99615.66
2023-11-07T02:28:47.037Z,99619.16
2023-11-07T02:32:50.535Z,99620.06
2023-11-07T02:36:54.023Z,99621.84
2023-11-07T02:40:59.352Z,99618.34
2023-11-07T02:45:02.401Z,99623.63
2023-11-07T02:49:06.933Z,99624.53
2023-11-07T02:53:10.074Z,99628.03
2023-11-07T02:57:14.846Z,99631.53
2023-11-07T03:01:23.045Z,99637.63
2023-11-07T03:05:26.670Z,99640.25
2023-11-07T03:09:29.697Z,99647.28
2023-11-07T03:13:35.920Z,99647.25
2023-11-07T03:17:38.993Z,99644.63
2023-11-07T03:21:42.459Z,99652.50
2023-11-07T03:25:45.515Z,99658.59
2023-11-07T03:29:50.366Z,99655.97
2023-11-07T03:33:54.034Z,99656.78
2023-11-07T03:37:57.357Z,99666.34
2023-11-07T03:42:01.895Z,99662.84
2023-11-07T03:46:08.324Z,99661.97
2023-11-07T03:50:11.991Z,99659.38
2023-11-07T03:54:15.478Z,99670.75
2023-11-07T03:58:18.605Z,99675.16
2023-11-07T04:02:23.412Z,99672.53
2023-11-07T04:06:26.519Z,99669.91
2023-11-07T04:10:30.422Z,99678.66
2023-11-07T04:14:33.712Z,99675.16
2023-11-07T04:18:38.578Z,99683.00
2023-11-07T04:22:42.354Z,99680.34
2023-11-07T04:26:46.041Z,99684.69
2023-11-07T04:30:49.158Z,99689.88
2023-11-07T04:34:53.993Z,99689.00
2023-11-07T04:38:57.046Z,99691.63
2023-11-07T04:43:02.480Z,99691.63
2023-11-07T04:47:06.615Z,99701.22
2023-11-07T04:51:12.624Z,99700.38
2023-11-07T04:55:15.676Z,99703.91
2023-11-07T04:59:19.151Z,99705.69
2023-11-07T05:03:27.720Z,99702.22
2023-11-07T05:07:38.920Z,99710.13
2023-11-07T05:11:41.985Z,99702.28
2023-11-07T05:15:47.345Z,99700.59
2023-11-07T05:19:50.401Z,99701.50
2023-11-07T05:23:55.075Z,99694.53
2023-11-07T05:27:58.135Z,99698.91
2023-11-07T05:32:01.493Z,99698.94
2023-11-07T05:36:04.764Z,99696.25
2023-11-07T05:40:14.873Z,99698.81
2023-11-07T05:44:18.063Z,99700.56
2023-11-07T05:48:26.233Z,99710.13
2023-11-07T05:52:29.349Z,99717.94
2023-11-07T05:56:34.066Z,99720.53
2023-11-07T06:00:37.105Z,99737.09
2023-11-07T06:04:40.630Z,99734.41
2023-11-07T06:08:43.846Z,99737.91
2023-11-07T06:12:48.564Z,99751.00
2023-11-07T06:16:53.944Z,99770.22
2023-11-07T06:20:57.323Z,99761.47
2023-11-07T06:25:00.976Z,99764.13
2023-11-07T06:29:06.754Z,99780.69
2023-11-07T06:33:10.351Z,99768.41
2023-11-07T06:37:13.954Z,99775.41
2023-11-07T06:41:18.892Z,99769.28
2023-11-07T06:45:24.839Z,99775.31
2023-11-07T06:49:27.990Z,99775.25
2023-11-07T06:53:31.729Z,99788.38
2023-11-07T06:57:35.043Z,99789.31
2023-11-07T07:01:39.860Z,99790.25
2023-11-07T07:05:43.142Z,99797.28
2023-11-07T07:09:46.549Z,99786.84
2023-11-07T07:13:50.175Z,99792.97
2023-11-07T07:17:55.310Z,99806.19
2023-11-07T07:21:58.574Z,99804.50
2023-11-07T07:26:02.588Z,99811.56
2023-11-07T07:30:07.535Z,99804.63
2023-11-07T07:34:12.377Z,99810.78
2023-11-07T07:38:15.513Z,99804.72
2023-11-07T07:42:19.856Z,99803.91
2023-11-07T07:46:28.887Z,99799.59
2023-11-07T07:50:34.489Z,99806.69
2023-11-07T07:55:00.085Z,99803.25
2023-11-07T07:59:01.805Z,99820.81
2023-11-07T08:03:08.643Z,99815.63
2023-11-07T08:07:18.214Z,99816.63
2023-11-07T08:11:22.240Z,99815.81
2023-11-07T08:15:28.305Z,99818.53
2023-11-07T08:19:31.357Z,99805.44
2023-11-07T08:23:35.748Z,99814.28
2023-11-07T08:27:40.043Z,99807.34
2023-11-07T08:31:43.369Z,99800.38
2023-11-07T08:35:47.893Z,99800.47
2023-11-07T08:39:53.015Z,99800.50
2023-11-07T08:43:56.052Z,99811.94
2023-11-07T08:48:00.047Z,99811.16
2023-11-07T08:52:06.082Z,99814.75
2023-11-07T08:56:11.189Z,99813.91
2023-11-07T09:00:22.619Z,99815.69
2023-11-07T09:04:26.822Z,99819.25
2023-11-07T09:08:30.265Z,99835.94
2023-11-07T09:12:35.468Z,99837.72
2023-11-07T09:16:38.510Z,99842.13
2023-11-07T09:20:42.172Z,99843.91
2023-11-07T09:24:46.572Z,99844.78
2023-11-07T09:28:52.196Z,99846.53
2023-11-07T09:32:57.927Z,99834.25
2023-11-07T09:37:01.562Z,99831.63
2023-11-07T09:41:06.592Z,99829.00
2023-11-07T09:45:16.645Z,99819.34
2023-11-07T09:49:20.912Z,99824.63
2023-11-07T09:53:24.310Z,99831.66
2023-11-07T09:57:28.254Z,99820.28
2023-11-07T10:01:32.995Z,99822.03
2023-11-07T10:05:40.109Z,99824.69
2023-11-07T10:09:46.145Z,99811.50
2023-11-07T10:14:02.099Z,99815.91
2023-11-07T10:18:13.275Z,99803.63
2023-11-07T10:22:17.116Z,99800.97
2023-11-07T10:26:20.507Z,99807.13
2023-11-07T10:30:23.970Z,99805.38
2023-11-07T10:34:28.759Z,99808.03
2023-11-07T10:38:32.411Z,99800.09
2023-11-07T10:42:36.163Z,99795.69
2023-11-07T10:46:39.564Z,99793.03
2023-11-07T10:50:44.707Z,99792.13
2023-11-07T10:54:47.908Z,99793.84
2023-11-07T10:59:02.760Z,99794.72
2023-11-07T11:07:19.553Z,99794.66
2023-11-07T11:11:28.166Z,99782.34
2023-11-07T11:15:35.884Z,99763.84
2023-11-07T11:19:45.456Z,99769.06
2023-11-07T11:24:03.357Z,99769.03
2023-11-07T11:28:07.102Z,99761.06
2023-11-07T11:32:28.351Z,99759.28
2023-11-07T11:36:35.689Z,99754.84
2023-11-07T11:40:56.481Z,99754.84
2023-11-07T11:45:40.393Z,99737.13
2023-11-07T11:50:23.202Z,99731.81
2023-11-07T11:54:54.179Z,99729.97
2023-11-07T11:59:10.781Z,99736.97
2023-11-07T12:03:19.601Z,99722.84
2023-11-07T12:07:26.317Z,99715.75
2023-11-07T12:11:40.732Z,99710.47
2023-11-07T12:15:49.684Z,99699.00
2023-11-07T12:20:04.388Z,99701.63
2023-11-07T12:24:08.521Z,99701.59
2023-11-07T12:28:11.890Z,99699.81
2023-11-07T12:32:22.664Z,99688.34
2023-11-07T12:36:26.659Z,99684.78
2023-11-07T12:40:30.404Z,99675.97
2023-11-07T12:44:33.538Z,99676.03
2023-11-07T12:48:39.300Z,99676.03
2023-11-07T12:52:55.332Z,99665.53
2023-11-07T12:56:58.681Z,99664.59
2023-11-07T13:01:05.410Z,99662.81
2023-11-07T13:05:17.799Z,99654.81
2023-11-07T13:09:22.481Z,99653.88
2023-11-07T13:13:27.884Z,99653.84
2023-11-07T13:17:31.118Z,99652.03
2023-11-07T13:21:37.307Z,99644.97
2023-11-07T13:25:40.319Z,99649.31
2023-11-07T13:29:45.084Z,99639.63
2023-11-07T13:33:48.640Z,99638.69
2023-11-07T13:37:54.029Z,99643.94
2023-11-07T13:41:57.128Z,99640.34
2023-11-07T13:46:00.550Z,99636.81
2023-11-07T13:50:06.162Z,99629.72
2023-11-07T13:54:11.295Z,99617.31
2023-11-07T13:58:14.411Z,99619.16
2023-11-07T14:02:17.865Z,99619.13
2023-11-07T14:06:21.994Z,99617.31
2023-11-07T14:10:28.396Z,99618.13
2023-11-07T14:14:32.910Z,99612.84
2023-11-07T14:18:36.548Z,99605.78
2023-11-07T14:22:40.583Z,99587.31
2023-11-07T14:26:46.055Z,99593.53
2023-11-07T14:30:49.344Z,99604.16
2023-11-07T14:34:52.622Z,99605.06
2023-11-07T14:38:55.696Z,99611.28
2023-11-07T14:43:05.447Z,99615.66
2023-11-07T14:47:10.681Z,99604.16
2023-11-07T14:51:14.069Z,99603.31
2023-11-07T14:55:19.208Z,99595.41
2023-11-07T14:59:25.790Z,99600.78
2023-11-07T15:03:29.351Z,99599.03
2023-11-07T15:07:33.043Z,99607.88
2023-11-07T15:11:36.030Z,99607.06
2023-11-07T15:15:41.888Z,99604.47
2023-11-07T15:19:45.288Z,99608.03
2023-11-07T15:23:48.719Z,99601.97
2023-11-07T15:27:52.003Z,99602.06
2023-11-07T15:31:56.713Z,99605.69
2023-11-07T15:36:01.327Z,99608.38
2023-11-07T15:40:08.362Z,99607.56
2023-11-07T15:44:11.529Z,99615.53
2023-11-07T15:52:20.642Z,99624.34
2023-11-07T15:56:24.063Z,99632.28
2023-11-07T16:00:27.718Z,99631.41
2023-11-07T16:04:33.165Z,99627.00
2023-11-07T16:08:37.093Z,99632.28
2023-11-07T16:12:41.661Z,99635.84
2023-11-07T16:16:45.669Z,99640.22
2023-11-07T16:20:50.435Z,99639.38
2023-11-07T16:24:53.913Z,99637.66
2023-11-07T16:28:57.467Z,99618.34
2023-11-07T16:33:00.615Z,99613.13
2023-11-07T16:37:05.663Z,99616.72
2023-11-07T16:41:08.758Z,99622.91
2023-11-07T16:45:15.193Z,99626.47
2023-11-07T16:49:20.191Z,99624.69
2023-11-07T16:53:24.959Z,99622.06
2023-11-07T16:57:27.979Z,99619.44
2023-11-07T17:01:31.045Z,99632.66
2023-11-07T17:05:36.688Z,99634.41
2023-11-07T17:09:41.418Z,99636.19
2023-11-07T17:13:44.482Z,99643.25
2023-11-07T17:17:51.830Z,99647.63
2023-11-07T17:21:57.460Z,99663.47
2023-11-07T17:26:02.901Z,99664.38
2023-11-07T17:30:08.583Z,99674.94
2023-11-07T17:34:14.409Z,99684.63
2023-11-07T17:38:17.827Z,99682.88
2023-11-07T17:42:22.596Z,99689.91
2023-11-07T17:46:25.749Z,99695.22
2023-11-07T17:50:29.261Z,99689.06
2023-11-07T17:54:32.372Z,99689.09
2023-11-07T17:58:40.484Z,99692.63
2023-11-07T18:02:44.005Z,99691.78
2023-11-07T18:06:47.630Z,99696.19
2023-11-07T18:10:50.681Z,99694.44
2023-11-07T18:14:55.573Z,99695.34
2023-11-07T18:19:00.871Z,99689.22
2023-11-07T18:23:04.514Z,99682.16
2023-11-07T18:27:07.795Z,99674.25
2023-11-07T18:31:12.543Z,99672.50
2023-11-07T18:35:15.641Z,99673.38
2023-11-07T18:39:19.597Z,99687.44
2023-11-07T18:43:22.721Z,99682.22
2023-11-07T18:47:28.338Z,99685.72
2023-11-07T18:51:32.679Z,99691.91
2023-11-07T18:55:35.873Z,99695.41
2023-11-07T18:59:38.931Z,99695.41
2023-11-07T19:03:43.665Z,99691.00
2023-11-07T19:07:47.067Z,99698.03
2023-11-07T19:11:50.566Z,99692.75
2023-11-07T19:15:53.559Z,99693.63
2023-11-07T19:19:58.276Z,99696.28
2023-11-07T19:24:01.892Z,99690.13
2023-11-07T19:28:05.917Z,99681.38
2023-11-07T19:32:09.578Z,99679.59
2023-11-07T19:36:14.967Z,99677.84
2023-11-07T19:40:21.793Z,99674.31
2023-11-07T19:44:25.286Z,99683.13
2023-11-07T19:48:28.591Z,99673.47
2023-11-07T19:52:34.835Z,99681.41
2023-11-07T19:56:38.914Z,99677.00
2023-11-07T20:00:42.362Z,99677.91
2023-11-07T20:04:46.513Z,99676.13
2023-11-07T20:08:51.821Z,99681.41
2023-11-07T20:12:54.950Z,99686.69
2023-11-07T20:16:58.392Z,99690.22
2023-11-07T20:21:02.298Z,99688.47
2023-11-07T20:25:10.031Z,99682.31
2023-11-07T20:29:13.406Z,99677.94
2023-11-07T20:33:17.230Z,99674.41
2023-11-07T20:37:21.222Z,99667.41
2023-11-07T20:41:29.236Z,99660.38
2023-11-07T20:45:35.193Z,99664.78
2023-11-07T20:49:45.640Z,99670.03
2023-11-07T20:53:52.031Z,99667.41
2023-11-07T20:58:02.227Z,99658.63
2023-11-07T21:02:09.278Z,99673.59
2023-11-07T21:06:13.081Z,99676.22
2023-11-07T21:10:16.583Z,99672.72
2023-11-07T21:14:21.380Z,99673.63
2023-11-07T21:18:24.759Z,99670.97
2023-11-07T21:22:28.829Z,99677.13
2023-11-07T21:26:31.826Z,99680.63
2023-11-07T21:30:36.680Z,99671.00
2023-11-07T21:34:41.858Z,99675.38
2023-11-07T21:38:45.247Z,99685.94
2023-11-07T21:42:48.264Z,99678.88
2023-11-07T21:46:53.102Z,99678.03
2023-11-07T21:50:56.843Z,99679.78
2023-11-07T21:54:59.941Z,99679.78
2023-11-07T21:59:03.048Z,99672.75
2023-11-07T22:03:08.011Z,99684.19
2023-11-07T22:07:11.480Z,99685.03
2023-11-07T22:11:14.575Z,99680.66
2023-11-07T22:15:17.677Z,99690.31
2023-11-07T22:19:22.457Z,99688.56
2023-11-07T22:23:26.097Z,99686.78
2023-11-07T22:27:29.490Z,99689.41
2023-11-07T22:31:32.537Z,99693.81
2023-11-07T22:35:36.919Z,99684.16
2023-11-07T22:39:39.997Z,99689.44
2023-11-07T22:43:43.637Z,99690.28
2023-11-07T22:47:46.852Z,99686.78
2023-11-07T22:51:51.944Z,99687.69
2023-11-07T22:55:56.282Z,99681.53
2023-11-07T23:00:00.721Z,99684.13
2023-11-07T23:04:25.839Z,99676.22
2023-11-07T23:08:30.752Z,99675.34
2023-11-07T23:12:34.121Z,99677.97
2023-11-07T23:16:38.998Z,99670.97
2023-11-07T23:20:42.816Z,99672.72
2023-11-07T23:24:48.653Z,99665.69
2023-11-07T23:28:51.679Z,99666.56
2023-11-07T23:32:56.382Z,99669.22
2023-11-07T23:37:00.192Z,99674.47
2023-11-07T23:41:06.299Z,99663.06
2023-11-07T23:45:10.641Z,99658.69
2023-11-07T23:49:14.544Z,99658.69
2023-11-07T23:53:17.974Z,99656.91
2023-11-07T23:57:23.185Z,99668.34
